sensor_id;sensor_type;location;lat;lon;timestamp;temperature;humidity
68189;DHT22;66299;47.514;19.218;2023-09-18T00:01:53;17.34;93.96
68189;DHT22;66299;47.514;19.218;2023-09-18T00:04:24;17.24;94.28
68189;DHT22;66299;47.514;19.218;2023-09-18T00:06:55;17.18;94.61
68189;DHT22;66299;47.514;19.218;2023-09-18T00:09:23;17.21;94.30
68189;DHT22;66299;47.514;19.218;2023-09-18T00:11:52;17.21;94.86
68189;DHT22;66299;47.514;19.218;2023-09-18T00:14:21;17.11;94.56
68189;DHT22;66299;47.514;19.218;2023-09-18T00:16:52;17.10;95.00
68189;DHT22;66299;47.514;19.218;2023-09-18T00:19:25;16.98;94.92
68189;DHT22;66299;47.514;19.218;2023-09-18T00:21:55;16.92;95.28
68189;DHT22;66299;47.514;19.218;2023-09-18T00:24:28;16.88;95.56
68189;DHT22;66299;47.514;19.218;2023-09-18T00:26:56;16.83;95.72
68189;DHT22;66299;47.514;19.218;2023-09-18T00:29:25;16.69;95.22
68189;DHT22;66299;47.514;19.218;2023-09-18T00:31:56;16.73;95.71
68189;DHT22;66299;47.514;19.218;2023-09-18T00:34:25;16.70;96.31
68189;DHT22;66299;47.514;19.218;2023-09-18T00:36:53;16.67;96.52
68189;DHT22;66299;47.514;19.218;2023-09-18T00:39:22;16.66;96.82
68189;DHT22;66299;47.514;19.218;2023-09-18T00:41:53;16.64;96.70
68189;DHT22;66299;47.514;19.218;2023-09-18T00:44:25;16.61;96.85
68189;DHT22;66299;47.514;19.218;2023-09-18T00:46:55;16.52;96.79
68189;DHT22;66299;47.514;19.218;2023-09-18T00:49:26;16.46;97.09
68189;DHT22;66299;47.514;19.218;2023-09-18T00:51:55;16.39;97.23
68189;DHT22;66299;47.514;19.218;2023-09-18T00:54:25;16.39;97.42
68189;DHT22;66299;47.514;19.218;2023-09-18T00:56:54;16.34;97.46
68189;DHT22;66299;47.514;19.218;2023-09-18T00:59:23;16.36;97.53
68189;DHT22;66299;47.514;19.218;2023-09-18T01:01:52;16.36;97.62
68189;DHT22;66299;47.514;19.218;2023-09-18T01:04:22;16.34;97.54
68189;DHT22;66299;47.514;19.218;2023-09-18T01:06:53;16.36;97.39
68189;DHT22;66299;47.514;19.218;2023-09-18T01:09:24;16.43;97.36
68189;DHT22;66299;47.514;19.218;2023-09-18T01:11:59;16.45;97.33
68189;DHT22;66299;47.514;19.218;2023-09-18T01:14:33;16.45;97.30
68189;DHT22;66299;47.514;19.218;2023-09-18T01:17:06;16.49;97.10
68189;DHT22;66299;47.514;19.218;2023-09-18T01:19:42;16.42;97.17
68189;DHT22;66299;47.514;19.218;2023-09-18T01:22:14;16.42;97.28
68189;DHT22;66299;47.514;19.218;2023-09-18T01:24:45;16.45;97.06
68189;DHT22;66299;47.514;19.218;2023-09-18T01:27:19;16.45;97.12
68189;DHT22;66299;47.514;19.218;2023-09-18T01:29:48;16.42;97.34
68189;DHT22;66299;47.514;19.218;2023-09-18T01:32:18;16.40;97.23
68189;DHT22;66299;47.514;19.218;2023-09-18T01:34:47;16.43;97.34
68189;DHT22;66299;47.514;19.218;2023-09-18T01:37:18;16.39;97.32
68189;DHT22;66299;47.514;19.218;2023-09-18T01:39:51;16.34;97.32
68189;DHT22;66299;47.514;19.218;2023-09-18T01:42:20;16.38;97.39
68189;DHT22;66299;47.514;19.218;2023-09-18T01:44:52;16.33;97.23
68189;DHT22;66299;47.514;19.218;2023-09-18T01:47:21;16.33;97.44
68189;DHT22;66299;47.514;19.218;2023-09-18T01:49:51;16.29;97.41
68189;DHT22;66299;47.514;19.218;2023-09-18T01:52:20;16.33;97.25
68189;DHT22;66299;47.514;19.218;2023-09-18T01:54:51;16.34;97.13
68189;DHT22;66299;47.514;19.218;2023-09-18T01:57:20;16.30;97.32
68189;DHT22;66299;47.514;19.218;2023-09-18T01:59:49;16.33;97.22
68189;DHT22;66299;47.514;19.218;2023-09-18T02:02:19;16.32;97.16
68189;DHT22;66299;47.514;19.218;2023-09-18T02:05:00;16.29;97.31
68189;DHT22;66299;47.514;19.218;2023-09-18T02:07:36;16.28;97.15
68189;DHT22;66299;47.514;19.218;2023-09-18T02:10:07;16.26;97.21
68189;DHT22;66299;47.514;19.218;2023-09-18T02:12:38;16.22;97.34
68189;DHT22;66299;47.514;19.218;2023-09-18T02:15:08;16.19;97.27
68189;DHT22;66299;47.514;19.218;2023-09-18T02:17:38;16.21;97.27
68189;DHT22;66299;47.514;19.218;2023-09-18T02:20:08;16.19;97.20
68189;DHT22;66299;47.514;19.218;2023-09-18T02:22:39;16.19;97.32
68189;DHT22;66299;47.514;19.218;2023-09-18T02:25:09;16.23;97.26
68189;DHT22;66299;47.514;19.218;2023-09-18T02:27:39;16.32;96.97
68189;DHT22;66299;47.514;19.218;2023-09-18T02:30:09;16.38;96.97
68189;DHT22;66299;47.514;19.218;2023-09-18T02:32:38;16.45;97.09
68189;DHT22;66299;47.514;19.218;2023-09-18T02:35:08;16.55;96.71
68189;DHT22;66299;47.514;19.218;2023-09-18T02:37:37;16.55;96.23
68189;DHT22;66299;47.514;19.218;2023-09-18T02:40:06;16.59;96.40
68189;DHT22;66299;47.514;19.218;2023-09-18T02:42:39;16.59;96.33
68189;DHT22;66299;47.514;19.218;2023-09-18T02:45:09;16.61;96.23
68189;DHT22;66299;47.514;19.218;2023-09-18T02:47:41;16.57;96.33
68189;DHT22;66299;47.514;19.218;2023-09-18T02:50:10;16.55;96.36
68189;DHT22;66299;47.514;19.218;2023-09-18T02:52:40;16.52;96.63
68189;DHT22;66299;47.514;19.218;2023-09-18T02:55:10;16.49;96.57
68189;DHT22;66299;47.514;19.218;2023-09-18T02:57:41;16.49;96.58
68189;DHT22;66299;47.514;19.218;2023-09-18T03:00:10;16.45;96.56
68189;DHT22;66299;47.514;19.218;2023-09-18T03:02:39;16.46;96.67
68189;DHT22;66299;47.514;19.218;2023-09-18T03:05:08;16.46;96.62
68189;DHT22;66299;47.514;19.218;2023-09-18T03:07:44;16.42;96.61
68189;DHT22;66299;47.514;19.218;2023-09-18T03:10:14;16.40;96.76
68189;DHT22;66299;47.514;19.218;2023-09-18T03:12:49;16.34;96.86
68189;DHT22;66299;47.514;19.218;2023-09-18T03:15:18;16.33;96.77
68189;DHT22;66299;47.514;19.218;2023-09-18T03:17:50;16.38;96.87
68189;DHT22;66299;47.514;19.218;2023-09-18T03:20:22;16.38;96.66
68189;DHT22;66299;47.514;19.218;2023-09-18T03:22:57;16.32;96.80
68189;DHT22;66299;47.514;19.218;2023-09-18T03:25:26;16.23;96.92
68189;DHT22;66299;47.514;19.218;2023-09-18T03:28:15;16.19;97.14
68189;DHT22;66299;47.514;19.218;2023-09-18T03:30:44;16.12;97.29
68189;DHT22;66299;47.514;19.218;2023-09-18T03:33:15;16.05;97.31
68189;DHT22;66299;47.514;19.218;2023-09-18T03:35:47;16.06;97.53
68189;DHT22;66299;47.514;19.218;2023-09-18T03:38:17;16.06;97.54
68189;DHT22;66299;47.514;19.218;2023-09-18T03:40:48;16.05;97.44
68189;DHT22;66299;47.514;19.218;2023-09-18T03:43:19;16.02;97.44
68189;DHT22;66299;47.514;19.218;2023-09-18T03:45:49;15.98;97.57
68189;DHT22;66299;47.514;19.218;2023-09-18T03:48:18;15.95;97.59
68189;DHT22;66299;47.514;19.218;2023-09-18T03:50:49;15.95;97.57
68189;DHT22;66299;47.514;19.218;2023-09-18T03:53:18;15.94;97.59
68189;DHT22;66299;47.514;19.218;2023-09-18T03:55:49;15.98;97.54
68189;DHT22;66299;47.514;19.218;2023-09-18T03:58:21;15.92;97.75
68189;DHT22;66299;47.514;19.218;2023-09-18T04:00:50;15.90;97.86
68189;DHT22;66299;47.514;19.218;2023-09-18T04:03:22;15.82;97.89
68189;DHT22;66299;47.514;19.218;2023-09-18T04:05:50;15.85;97.92
68189;DHT22;66299;47.514;19.218;2023-09-18T04:08:21;15.80;98.16
68189;DHT22;66299;47.514;19.218;2023-09-18T04:10:51;15.77;98.31
68189;DHT22;66299;47.514;19.218;2023-09-18T04:13:26;15.74;98.34
68189;DHT22;66299;47.514;19.218;2023-09-18T04:15:55;15.74;98.50
68189;DHT22;66299;47.514;19.218;2023-09-18T04:18:24;15.70;98.57
68189;DHT22;66299;47.514;19.218;2023-09-18T04:20:54;15.73;98.54
68189;DHT22;66299;47.514;19.218;2023-09-18T04:23:25;15.73;98.52
68189;DHT22;66299;47.514;19.218;2023-09-18T04:25:54;15.73;98.49
68189;DHT22;66299;47.514;19.218;2023-09-18T04:28:27;15.75;98.54
68189;DHT22;66299;47.514;19.218;2023-09-18T04:30:56;15.73;98.52
68189;DHT22;66299;47.514;19.218;2023-09-18T04:33:25;15.74;98.37
68189;DHT22;66299;47.514;19.218;2023-09-18T04:35:56;15.74;98.59
68189;DHT22;66299;47.514;19.218;2023-09-18T04:38:28;15.74;98.52
68189;DHT22;66299;47.514;19.218;2023-09-18T04:41:00;15.71;98.58
68189;DHT22;66299;47.514;19.218;2023-09-18T04:43:31;15.73;98.59
68189;DHT22;66299;47.514;19.218;2023-09-18T04:46:00;15.77;98.33
68189;DHT22;66299;47.514;19.218;2023-09-18T04:48:34;15.77;98.55
68189;DHT22;66299;47.514;19.218;2023-09-18T04:51:04;15.78;98.02
68189;DHT22;66299;47.514;19.218;2023-09-18T04:53:33;15.80;98.44
68189;DHT22;66299;47.514;19.218;2023-09-18T04:56:03;15.82;98.33
68189;DHT22;66299;47.514;19.218;2023-09-18T04:58:35;15.80;98.40
68189;DHT22;66299;47.514;19.218;2023-09-18T05:01:04;15.90;98.45
68189;DHT22;66299;47.514;19.218;2023-09-18T05:03:34;15.92;98.21
68189;DHT22;66299;47.514;19.218;2023-09-18T05:06:07;16.01;98.12
68189;DHT22;66299;47.514;19.218;2023-09-18T05:08:38;16.06;97.90
68189;DHT22;66299;47.514;19.218;2023-09-18T05:11:08;16.15;97.70
68189;DHT22;66299;47.514;19.218;2023-09-18T05:13:42;16.13;97.78
68189;DHT22;66299;47.514;19.218;2023-09-18T05:16:11;16.29;97.00
68189;DHT22;66299;47.514;19.218;2023-09-18T05:18:42;16.26;97.61
68189;DHT22;66299;47.514;19.218;2023-09-18T05:21:11;16.38;96.98
68189;DHT22;66299;47.514;19.218;2023-09-18T05:23:39;16.38;97.38
68189;DHT22;66299;47.514;19.218;2023-09-18T05:26:08;16.43;96.90
68189;DHT22;66299;47.514;19.218;2023-09-18T05:28:37;16.48;97.06
68189;DHT22;66299;47.514;19.218;2023-09-18T05:31:09;16.59;96.75
68189;DHT22;66299;47.514;19.218;2023-09-18T05:33:40;16.55;97.26
68189;DHT22;66299;47.514;19.218;2023-09-18T05:36:09;16.66;96.53
68189;DHT22;66299;47.514;19.218;2023-09-18T05:38:39;16.88;95.51
68189;DHT22;66299;47.514;19.218;2023-09-18T05:41:10;16.84;96.10
68189;DHT22;66299;47.514;19.218;2023-09-18T05:43:41;16.85;95.93
68189;DHT22;66299;47.514;19.218;2023-09-18T05:46:13;16.90;95.75
68189;DHT22;66299;47.514;19.218;2023-09-18T05:48:45;16.95;95.85
68189;DHT22;66299;47.514;19.218;2023-09-18T05:51:14;17.04;95.14
68189;DHT22;66299;47.514;19.218;2023-09-18T05:53:43;17.08;94.84
68189;DHT22;66299;47.514;19.218;2023-09-18T05:56:11;17.14;95.33
68189;DHT22;66299;47.514;19.218;2023-09-18T05:58:43;17.18;95.28
68189;DHT22;66299;47.514;19.218;2023-09-18T06:01:16;17.35;94.21
68189;DHT22;66299;47.514;19.218;2023-09-18T06:03:45;17.45;93.98
68189;DHT22;66299;47.514;19.218;2023-09-18T06:06:16;17.59;92.80
68189;DHT22;66299;47.514;19.218;2023-09-18T06:08:47;17.82;92.03
68189;DHT22;66299;47.514;19.218;2023-09-18T06:11:27;17.82;93.11
68189;DHT22;66299;47.514;19.218;2023-09-18T06:14:00;17.93;91.56
68189;DHT22;66299;47.514;19.218;2023-09-18T06:16:32;17.93;92.32
68189;DHT22;66299;47.514;19.218;2023-09-18T06:19:02;18.11;91.65
68189;DHT22;66299;47.514;19.218;2023-09-18T06:21:31;18.15;91.98
68189;DHT22;66299;47.514;19.218;2023-09-18T06:24:01;18.21;92.08
68189;DHT22;66299;47.514;19.218;2023-09-18T06:26:32;18.40;90.20
68189;DHT22;66299;47.514;19.218;2023-09-18T06:29:05;18.45;90.72
68189;DHT22;66299;47.514;19.218;2023-09-18T06:31:42;18.59;89.58
68189;DHT22;66299;47.514;19.218;2023-09-18T06:34:13;18.75;89.15
68189;DHT22;66299;47.514;19.218;2023-09-18T06:36:45;18.68;89.17
68189;DHT22;66299;47.514;19.218;2023-09-18T06:39:17;18.83;88.68
68189;DHT22;66299;47.514;19.218;2023-09-18T06:41:47;18.96;87.72
68189;DHT22;66299;47.514;19.218;2023-09-18T06:44:25;19.11;88.21
68189;DHT22;66299;47.514;19.218;2023-09-18T06:46:58;19.17;87.27
68189;DHT22;66299;47.514;19.218;2023-09-18T06:49:27;19.16;88.29
68189;DHT22;66299;47.514;19.218;2023-09-18T06:51:59;19.21;88.59
68189;DHT22;66299;47.514;19.218;2023-09-18T06:54:32;19.38;87.47
68189;DHT22;66299;47.514;19.218;2023-09-18T06:57:00;19.50;85.94
68189;DHT22;66299;47.514;19.218;2023-09-18T06:59:34;19.58;85.31
68189;DHT22;66299;47.514;19.218;2023-09-18T07:02:05;19.71;85.37
68189;DHT22;66299;47.514;19.218;2023-09-18T07:04:35;19.68;85.03
68189;DHT22;66299;47.514;19.218;2023-09-18T07:07:17;19.81;84.72
68189;DHT22;66299;47.514;19.218;2023-09-18T07:09:52;19.83;85.22
68189;DHT22;66299;47.514;19.218;2023-09-18T07:12:36;19.93;84.83
68189;DHT22;66299;47.514;19.218;2023-09-18T07:15:08;19.92;85.57
68189;DHT22;66299;47.514;19.218;2023-09-18T07:17:40;20.04;84.62
68189;DHT22;66299;47.514;19.218;2023-09-18T07:20:11;20.16;84.46
68189;DHT22;66299;47.514;19.218;2023-09-18T07:22:46;20.29;84.46
68189;DHT22;66299;47.514;19.218;2023-09-18T07:25:17;20.33;83.18
68189;DHT22;66299;47.514;19.218;2023-09-18T07:27:47;20.41;83.50
68189;DHT22;66299;47.514;19.218;2023-09-18T07:30:18;20.57;83.19
68189;DHT22;66299;47.514;19.218;2023-09-18T07:32:56;20.64;82.22
68189;DHT22;66299;47.514;19.218;2023-09-18T07:35:26;20.71;82.12
68189;DHT22;66299;47.514;19.218;2023-09-18T07:37:56;20.68;81.82
68189;DHT22;66299;47.514;19.218;2023-09-18T07:40:25;20.74;83.09
68189;DHT22;66299;47.514;19.218;2023-09-18T07:42:58;20.90;81.82
68189;DHT22;66299;47.514;19.218;2023-09-18T07:45:27;21.09;81.51
68189;DHT22;66299;47.514;19.218;2023-09-18T07:48:03;21.18;81.33
68189;DHT22;66299;47.514;19.218;2023-09-18T07:50:36;21.30;80.83
68189;DHT22;66299;47.514;19.218;2023-09-18T07:53:06;21.18;81.32
68189;DHT22;66299;47.514;19.218;2023-09-18T07:55:35;21.33;81.62
68189;DHT22;66299;47.514;19.218;2023-09-18T07:58:06;21.35;80.51
68189;DHT22;66299;47.514;19.218;2023-09-18T08:00:41;21.45;80.08
68189;DHT22;66299;47.514;19.218;2023-09-18T08:03:14;21.59;80.05
68189;DHT22;66299;47.514;19.218;2023-09-18T08:05:48;21.66;79.48
68189;DHT22;66299;47.514;19.218;2023-09-18T08:08:18;21.73;79.54
68189;DHT22;66299;47.514;19.218;2023-09-18T08:10:50;21.80;79.24
68189;DHT22;66299;47.514;19.218;2023-09-18T08:13:20;21.76;80.09
68189;DHT22;66299;47.514;19.218;2023-09-18T08:15:50;22.04;79.77
68189;DHT22;66299;47.514;19.218;2023-09-18T08:18:22;22.11;78.94
68189;DHT22;66299;47.514;19.218;2023-09-18T08:20:55;22.15;78.46
68189;DHT22;66299;47.514;19.218;2023-09-18T08:23:28;22.11;78.35
68189;DHT22;66299;47.514;19.218;2023-09-18T08:25:59;22.44;78.42
68189;DHT22;66299;47.514;19.218;2023-09-18T08:28:30;22.41;77.43
68189;DHT22;66299;47.514;19.218;2023-09-18T08:31:00;22.36;77.05
68189;DHT22;66299;47.514;19.218;2023-09-18T08:33:32;22.63;77.06
68189;DHT22;66299;47.514;19.218;2023-09-18T08:36:03;22.69;77.34
68189;DHT22;66299;47.514;19.218;2023-09-18T08:38:32;22.90;76.60
68189;DHT22;66299;47.514;19.218;2023-09-18T08:41:03;22.97;76.41
68189;DHT22;66299;47.514;19.218;2023-09-18T08:43:34;23.25;76.06
68189;DHT22;66299;47.514;19.218;2023-09-18T08:46:06;23.32;76.97
68189;DHT22;66299;47.514;19.218;2023-09-18T08:48:40;23.11;75.42
68189;DHT22;66299;47.514;19.218;2023-09-18T08:51:11;23.31;75.46
68189;DHT22;66299;47.514;19.218;2023-09-18T08:53:42;23.63;74.92
68189;DHT22;66299;47.514;19.218;2023-09-18T08:56:22;23.75;76.02
68189;DHT22;66299;47.514;19.218;2023-09-18T08:58:54;23.61;74.04
68189;DHT22;66299;47.514;19.218;2023-09-18T09:01:24;23.80;74.09
68189;DHT22;66299;47.514;19.218;2023-09-18T09:03:56;23.92;73.32
68189;DHT22;66299;47.514;19.218;2023-09-18T09:06:25;24.13;72.91
68189;DHT22;66299;47.514;19.218;2023-09-18T09:09:00;23.86;72.59
68189;DHT22;66299;47.514;19.218;2023-09-18T09:11:30;24.24;73.89
68189;DHT22;66299;47.514;19.218;2023-09-18T09:14:09;24.27;71.89
68189;DHT22;66299;47.514;19.218;2023-09-18T09:16:40;24.43;71.95
68189;DHT22;66299;47.514;19.218;2023-09-18T09:19:11;24.47;71.37
68189;DHT22;66299;47.514;19.218;2023-09-18T09:21:43;24.50;71.05
68189;DHT22;66299;47.514;19.218;2023-09-18T09:24:11;24.48;71.31
68189;DHT22;66299;47.514;19.218;2023-09-18T09:26:41;24.75;70.43
68189;DHT22;66299;47.514;19.218;2023-09-18T09:29:18;24.91;70.50
68189;DHT22;66299;47.514;19.218;2023-09-18T09:31:53;24.88;70.72
68189;DHT22;66299;47.514;19.218;2023-09-18T09:34:30;25.11;70.19
68189;DHT22;66299;47.514;19.218;2023-09-18T09:36:59;25.39;70.07
68189;DHT22;66299;47.514;19.218;2023-09-18T09:39:46;25.13;69.22
68189;DHT22;66299;47.514;19.218;2023-09-18T09:42:17;25.36;68.71
68189;DHT22;66299;47.514;19.218;2023-09-18T09:45:02;25.42;68.39
68189;DHT22;66299;47.514;19.218;2023-09-18T09:47:37;25.40;68.43
68189;DHT22;66299;47.514;19.218;2023-09-18T09:50:10;25.42;69.25
68189;DHT22;66299;47.514;19.218;2023-09-18T09:52:44;25.71;68.72
68189;DHT22;66299;47.514;19.218;2023-09-18T09:55:22;25.82;68.28
68189;DHT22;66299;47.514;19.218;2023-09-18T09:57:55;26.00;67.91
68189;DHT22;66299;47.514;19.218;2023-09-18T10:00:31;25.78;67.99
68189;DHT22;66299;47.514;19.218;2023-09-18T10:03:06;25.94;67.62
68189;DHT22;66299;47.514;19.218;2023-09-18T10:05:42;26.28;67.72
68189;DHT22;66299;47.514;19.218;2023-09-18T10:08:17;26.15;66.82
68189;DHT22;66299;47.514;19.218;2023-09-18T10:10:49;26.49;66.67
68189;DHT22;66299;47.514;19.218;2023-09-18T10:13:21;26.66;66.72
68189;DHT22;66299;47.514;19.218;2023-09-18T10:15:52;26.76;66.62
68189;DHT22;66299;47.514;19.218;2023-09-18T10:18:27;26.32;65.92
68189;DHT22;66299;47.514;19.218;2023-09-18T10:21:13;26.35;65.95
68189;DHT22;66299;47.514;19.218;2023-09-18T10:23:58;26.63;65.80
68189;DHT22;66299;47.514;19.218;2023-09-18T10:26:27;26.63;66.27
68189;DHT22;66299;47.514;19.218;2023-09-18T10:29:03;26.83;65.34
68189;DHT22;66299;47.514;19.218;2023-09-18T10:31:36;26.60;65.14
68189;DHT22;66299;47.514;19.218;2023-09-18T10:34:14;26.91;65.38
68189;DHT22;66299;47.514;19.218;2023-09-18T10:36:48;27.10;64.56
68189;DHT22;66299;47.514;19.218;2023-09-18T10:39:19;27.15;64.40
68189;DHT22;66299;47.514;19.218;2023-09-18T10:41:53;27.04;63.30
68189;DHT22;66299;47.514;19.218;2023-09-18T10:44:25;27.15;63.18
68189;DHT22;66299;47.514;19.218;2023-09-18T10:46:55;27.30;64.02
68189;DHT22;66299;47.514;19.218;2023-09-18T10:49:30;27.17;63.49
68189;DHT22;66299;47.514;19.218;2023-09-18T10:52:01;26.94;64.04
68189;DHT22;66299;47.514;19.218;2023-09-18T10:54:31;27.20;64.60
68189;DHT22;66299;47.514;19.218;2023-09-18T10:57:06;27.52;63.60
68189;DHT22;66299;47.514;19.218;2023-09-18T10:59:46;27.44;62.26
68189;DHT22;66299;47.514;19.218;2023-09-18T11:02:19;27.44;63.11
68189;DHT22;66299;47.514;19.218;2023-09-18T11:04:54;27.23;63.54
68189;DHT22;66299;47.514;19.218;2023-09-18T11:07:27;27.15;63.12
68189;DHT22;66299;47.514;19.218;2023-09-18T11:09:57;27.44;62.66
68189;DHT22;66299;47.514;19.218;2023-09-18T11:12:44;27.75;62.78
68189;DHT22;66299;47.514;19.218;2023-09-18T11:15:32;27.63;62.30
68189;DHT22;66299;47.514;19.218;2023-09-18T11:18:04;27.78;63.59
68189;DHT22;66299;47.514;19.218;2023-09-18T11:20:36;27.62;62.35
68189;DHT22;66299;47.514;19.218;2023-09-18T11:23:19;27.56;62.41
68189;DHT22;66299;47.514;19.218;2023-09-18T11:26:10;27.90;63.18
68189;DHT22;66299;47.514;19.218;2023-09-18T11:28:42;27.39;61.99
68189;DHT22;66299;47.514;19.218;2023-09-18T11:31:15;27.20;63.05
68189;DHT22;66299;47.514;19.218;2023-09-18T11:33:44;27.59;62.59
68189;DHT22;66299;47.514;19.218;2023-09-18T11:36:15;27.49;62.37
68189;DHT22;66299;47.514;19.218;2023-09-18T11:39:04;27.33;62.50
68189;DHT22;66299;47.514;19.218;2023-09-18T11:41:36;26.86;63.54
68189;DHT22;66299;47.514;19.218;2023-09-18T11:44:33;27.38;62.64
68189;DHT22;66299;47.514;19.218;2023-09-18T11:47:11;27.83;62.09
68189;DHT22;66299;47.514;19.218;2023-09-18T11:49:53;28.04;61.34
68189;DHT22;66299;47.514;19.218;2023-09-18T11:52:27;28.14;60.89
68189;DHT22;66299;47.514;19.218;2023-09-18T11:55:01;27.97;61.00
68189;DHT22;66299;47.514;19.218;2023-09-18T11:57:39;27.42;61.85
68189;DHT22;66299;47.514;19.218;2023-09-18T12:00:18;27.39;62.17
68189;DHT22;66299;47.514;19.218;2023-09-18T12:02:51;27.30;61.89
68189;DHT22;66299;47.514;19.218;2023-09-18T12:05:23;27.10;61.77
68189;DHT22;66299;47.514;19.218;2023-09-18T12:07:55;27.20;62.40
68189;DHT22;66299;47.514;19.218;2023-09-18T12:10:29;27.18;62.87
68189;DHT22;66299;47.514;19.218;2023-09-18T12:13:00;27.15;62.41
68189;DHT22;66299;47.514;19.218;2023-09-18T12:15:32;27.18;62.58
68189;DHT22;66299;47.514;19.218;2023-09-18T12:18:08;27.93;60.76
68189;DHT22;66299;47.514;19.218;2023-09-18T12:20:47;28.78;58.57
68189;DHT22;66299;47.514;19.218;2023-09-18T12:23:17;29.77;55.77
68189;DHT22;66299;47.514;19.218;2023-09-18T12:25:58;28.04;59.11
68189;DHT22;66299;47.514;19.218;2023-09-18T12:28:33;29.30;56.78
68189;DHT22;66299;47.514;19.218;2023-09-18T12:31:04;29.29;57.73
68189;DHT22;66299;47.514;19.218;2023-09-18T12:33:37;29.37;56.05
68189;DHT22;66299;47.514;19.218;2023-09-18T12:36:10;29.16;56.19
68189;DHT22;66299;47.514;19.218;2023-09-18T12:38:43;28.39;58.61
68189;DHT22;66299;47.514;19.218;2023-09-18T12:41:15;27.38;60.16
68189;DHT22;66299;47.514;19.218;2023-09-18T12:43:46;27.66;59.71
68189;DHT22;66299;47.514;19.218;2023-09-18T12:46:17;28.34;58.66
68189;DHT22;66299;47.514;19.218;2023-09-18T12:48:49;28.98;57.31
68189;DHT22;66299;47.514;19.218;2023-09-18T12:51:29;28.51;58.46
68189;DHT22;66299;47.514;19.218;2023-09-18T12:54:07;27.97;60.01
68189;DHT22;66299;47.514;19.218;2023-09-18T12:56:41;27.92;59.77
68189;DHT22;66299;47.514;19.218;2023-09-18T12:59:13;27.66;60.20
68189;DHT22;66299;47.514;19.218;2023-09-18T13:01:50;27.63;59.81
68189;DHT22;66299;47.514;19.218;2023-09-18T13:04:21;27.73;60.16
68189;DHT22;66299;47.514;19.218;2023-09-18T13:07:02;27.90;59.71
68189;DHT22;66299;47.514;19.218;2023-09-18T13:09:33;27.90;60.76
68189;DHT22;66299;47.514;19.218;2023-09-18T13:12:04;27.82;60.44
68189;DHT22;66299;47.514;19.218;2023-09-18T13:15:00;27.61;59.93
68189;DHT22;66299;47.514;19.218;2023-09-18T13:17:44;27.66;59.85
68189;DHT22;66299;47.514;19.218;2023-09-18T13:20:16;27.63;59.76
68189;DHT22;66299;47.514;19.218;2023-09-18T13:22:49;27.45;59.80
68189;DHT22;66299;47.514;19.218;2023-09-18T13:25:25;27.52;59.79
68189;DHT22;66299;47.514;19.218;2023-09-18T13:27:57;27.73;59.38
68189;DHT22;66299;47.514;19.218;2023-09-18T13:30:28;27.63;59.01
68189;DHT22;66299;47.514;19.218;2023-09-18T13:33:04;27.63;59.85
68189;DHT22;66299;47.514;19.218;2023-09-18T13:35:38;27.66;59.54
68189;DHT22;66299;47.514;19.218;2023-09-18T13:38:11;28.03;59.28
68189;DHT22;66299;47.514;19.218;2023-09-18T13:40:43;27.83;58.75
68189;DHT22;66299;47.514;19.218;2023-09-18T13:43:19;27.73;58.90
68189;DHT22;66299;47.514;19.218;2023-09-18T13:45:55;27.59;59.36
68189;DHT22;66299;47.514;19.218;2023-09-18T13:48:27;27.63;58.84
68189;DHT22;66299;47.514;19.218;2023-09-18T13:50:56;27.65;58.42
68189;DHT22;66299;47.514;19.218;2023-09-18T13:53:25;27.69;58.66
68189;DHT22;66299;47.514;19.218;2023-09-18T13:55:54;27.66;59.09
68189;DHT22;66299;47.514;19.218;2023-09-18T13:58:25;27.85;59.04
68189;DHT22;66299;47.514;19.218;2023-09-18T14:00:57;27.99;58.63
68189;DHT22;66299;47.514;19.218;2023-09-18T14:03:25;28.20;57.94
68189;DHT22;66299;47.514;19.218;2023-09-18T14:05:54;28.14;58.32
68189;DHT22;66299;47.514;19.218;2023-09-18T14:08:23;28.00;58.85
68189;DHT22;66299;47.514;19.218;2023-09-18T14:10:52;27.70;58.69
68189;DHT22;66299;47.514;19.218;2023-09-18T14:13:21;27.62;58.94
68189;DHT22;66299;47.514;19.218;2023-09-18T14:15:53;27.58;59.82
68189;DHT22;66299;47.514;19.218;2023-09-18T14:18:23;27.38;60.13
68189;DHT22;66299;47.514;19.218;2023-09-18T14:20:55;27.34;59.56
68189;DHT22;66299;47.514;19.218;2023-09-18T14:23:26;27.17;61.51
68189;DHT22;66299;47.514;19.218;2023-09-18T14:25:55;27.00;60.94
68189;DHT22;66299;47.514;19.218;2023-09-18T14:28:24;26.97;59.56
68189;DHT22;66299;47.514;19.218;2023-09-18T14:30:54;26.93;59.91
68189;DHT22;66299;47.514;19.218;2023-09-18T14:33:25;26.91;60.42
68189;DHT22;66299;47.514;19.218;2023-09-18T14:35:54;26.91;60.19
68189;DHT22;66299;47.514;19.218;2023-09-18T14:38:24;26.91;60.28
68189;DHT22;66299;47.514;19.218;2023-09-18T14:40:52;26.83;60.26
68189;DHT22;66299;47.514;19.218;2023-09-18T14:43:29;26.80;60.86
68189;DHT22;66299;47.514;19.218;2023-09-18T14:45:58;26.67;60.92
68189;DHT22;66299;47.514;19.218;2023-09-18T14:48:27;26.59;60.63
68189;DHT22;66299;47.514;19.218;2023-09-18T14:50:59;26.57;60.98
68189;DHT22;66299;47.514;19.218;2023-09-18T14:53:28;26.50;61.45
68189;DHT22;66299;47.514;19.218;2023-09-18T14:55:59;26.45;61.58
68189;DHT22;66299;47.514;19.218;2023-09-18T14:58:28;26.40;61.87
68189;DHT22;66299;47.514;19.218;2023-09-18T15:00:59;26.45;61.00
68189;DHT22;66299;47.514;19.218;2023-09-18T15:03:28;26.42;61.71
68189;DHT22;66299;47.514;19.218;2023-09-18T15:05:58;26.46;61.54
68189;DHT22;66299;47.514;19.218;2023-09-18T15:08:29;26.50;61.43
68189;DHT22;66299;47.514;19.218;2023-09-18T15:10:58;26.49;61.83
68189;DHT22;66299;47.514;19.218;2023-09-18T15:13:27;26.55;62.04
68189;DHT22;66299;47.514;19.218;2023-09-18T15:15:56;26.66;61.34
68189;DHT22;66299;47.514;19.218;2023-09-18T15:18:27;26.69;61.05
68189;DHT22;66299;47.514;19.218;2023-09-18T15:20:56;26.67;61.76
68189;DHT22;66299;47.514;19.218;2023-09-18T15:23:26;26.66;61.69
68189;DHT22;66299;47.514;19.218;2023-09-18T15:25:57;26.59;62.03
68189;DHT22;66299;47.514;19.218;2023-09-18T15:28:27;26.63;61.48
68189;DHT22;66299;47.514;19.218;2023-09-18T15:30:57;26.55;61.90
68189;DHT22;66299;47.514;19.218;2023-09-18T15:33:27;26.59;61.80
68189;DHT22;66299;47.514;19.218;2023-09-18T15:35:56;26.55;62.18
68189;DHT22;66299;47.514;19.218;2023-09-18T15:38:27;26.50;62.11
68189;DHT22;66299;47.514;19.218;2023-09-18T15:40:56;26.53;62.77
68189;DHT22;66299;47.514;19.218;2023-09-18T15:43:25;26.29;62.90
68189;DHT22;66299;47.514;19.218;2023-09-18T15:45:54;26.28;62.46